createdAt,value
2017-12-14T00:00:08.839Z,1.50
2017-12-14T00:02:11.944Z,2.23
2017-12-14T00:04:15.008Z,3.00
2017-12-14T00:06:23.764Z,1.53
2017-12-14T00:08:32.520Z,2.57
2017-12-14T00:10:41.143Z,1.83
2017-12-14T00:12:49.732Z,1.47
2017-12-14T00:14:58.535Z,1.40
2017-12-14T00:17:01.633Z,1.77
2017-12-14T00:19:04.695Z,1.10
2017-12-14T00:21:07.823Z,1.10
2017-12-14T00:23:10.825Z,1.93
2017-12-14T00:25:13.285Z,1.90
2017-12-14T00:27:16.387Z,1.50
2017-12-14T00:29:19.420Z,2.50
2017-12-14T00:31:22.437Z,1.10
2017-12-14T00:33:25.586Z,1.53
2017-12-14T00:35:28.619Z,1.27
2017-12-14T00:37:31.694Z,1.63
2017-12-14T00:39:34.884Z,1.83
2017-12-14T00:41:37.950Z,1.10
2017-12-14T00:43:45.913Z,2.07
2017-12-14T00:45:49.009Z,2.10
2017-12-14T00:47:52.020Z,1.77
2017-12-14T00:49:55.036Z,2.50
2017-12-14T00:51:58.109Z,1.60
2017-12-14T00:54:01.171Z,1.20
2017-12-14T00:56:04.253Z,1.73
2017-12-14T00:58:07.273Z,1.43
2017-12-14T01:00:10.320Z,0.80
2017-12-14T01:02:13.365Z,1.37
2017-12-14T01:04:16.400Z,1.53
2017-12-14T01:06:19.454Z,1.00
2017-12-14T01:08:22.448Z,1.10
2017-12-14T01:10:25.489Z,1.23
2017-12-14T01:12:28.612Z,1.50
2017-12-14T01:14:31.623Z,1.10
2017-12-14T01:16:34.789Z,2.13
2017-12-14T01:18:37.978Z,2.13
2017-12-14T01:20:40.971Z,1.10
2017-12-14T01:22:44.033Z,1.27
2017-12-14T01:24:47.108Z,1.33
2017-12-14T01:26:50.212Z,1.13
2017-12-14T01:28:53.298Z,1.73
2017-12-14T01:30:56.293Z,1.37
2017-12-14T01:32:59.307Z,1.53
2017-12-14T01:35:02.368Z,3.43
2017-12-14T01:37:05.554Z,1.63
2017-12-14T01:39:08.560Z,0.97
2017-12-14T01:41:11.736Z,1.47
2017-12-14T01:43:14.831Z,1.27
2017-12-14T01:45:17.976Z,1.63
2017-12-14T01:47:21.000Z,1.43
2017-12-14T01:49:24.020Z,1.20
2017-12-14T01:51:27.071Z,2.20
2017-12-14T01:53:30.117Z,1.83
2017-12-14T01:55:33.135Z,1.20
2017-12-14T01:57:36.167Z,1.20
2017-12-14T01:59:39.257Z,1.43
2017-12-14T02:01:42.289Z,1.07
2017-12-14T02:03:45.303Z,1.10
2017-12-14T02:05:48.343Z,1.10
2017-12-14T02:07:51.377Z,1.23
2017-12-14T02:09:54.395Z,2.63
2017-12-14T02:11:57.424Z,1.00
2017-12-14T02:14:00.550Z,1.23
2017-12-14T02:16:03.556Z,1.20
2017-12-14T02:18:06.611Z,1.00
2017-12-14T02:20:09.654Z,1.20
2017-12-14T02:22:12.719Z,1.73
2017-12-14T02:24:15.812Z,1.03
2017-12-14T02:26:18.877Z,2.00
2017-12-14T02:28:21.929Z,1.00
2017-12-14T02:30:24.992Z,1.33
2017-12-14T02:32:28.099Z,1.93
2017-12-14T02:34:31.162Z,1.47
2017-12-14T02:36:34.254Z,1.23
2017-12-14T02:38:37.287Z,2.80
2017-12-14T02:40:40.307Z,1.10
2017-12-14T02:42:43.451Z,1.80
2017-12-14T02:44:46.480Z,1.40
2017-12-14T02:46:49.500Z,1.10
2017-12-14T02:48:52.676Z,1.07
2017-12-14T02:50:55.693Z,1.10
2017-12-14T02:52:58.819Z,0.90
2017-12-14T02:55:01.927Z,1.27
2017-12-14T02:57:05.058Z,1.10
2017-12-14T02:59:08.087Z,1.10
2017-12-14T03:01:11.132Z,2.10
2017-12-14T03:03:14.152Z,1.20
2017-12-14T03:05:17.194Z,1.00
2017-12-14T03:07:20.245Z,1.30
2017-12-14T03:09:23.289Z,1.23
2017-12-14T03:11:26.350Z,1.83
2017-12-14T03:13:29.486Z,1.40
2017-12-14T03:15:32.700Z,1.13
2017-12-14T03:17:35.726Z,1.20
2017-12-14T03:19:38.790Z,1.23
2017-12-14T03:21:41.820Z,1.30
2017-12-14T03:23:44.832Z,1.20
2017-12-14T03:25:47.879Z,1.53
2017-12-14T03:27:50.904Z,1.57
2017-12-14T03:29:54.001Z,0.90
2017-12-14T03:31:57.101Z,1.77
2017-12-14T03:34:00.126Z,1.30
2017-12-14T03:36:03.383Z,2.17
2017-12-14T03:38:06.423Z,1.00
2017-12-14T03:40:09.481Z,1.00
2017-12-14T03:42:12.509Z,1.20
2017-12-14T03:44:15.696Z,1.10
2017-12-14T03:46:18.732Z,1.33
2017-12-14T03:48:21.745Z,1.10
2017-12-14T03:50:24.800Z,1.37
2017-12-14T03:52:27.925Z,1.17
2017-12-14T03:54:30.950Z,1.40
2017-12-14T03:56:33.984Z,1.00
2017-12-14T03:58:37.008Z,1.00
2017-12-14T04:00:40.039Z,1.10
2017-12-14T04:02:43.548Z,1.30
2017-12-14T04:04:46.595Z,1.53
2017-12-14T04:06:49.682Z,1.10
2017-12-14T04:08:52.730Z,1.37
2017-12-14T04:10:55.752Z,1.00
2017-12-14T04:12:58.936Z,1.20
2017-12-14T04:15:01.969Z,1.20
2017-12-14T04:17:05.002Z,1.00
2017-12-14T04:19:08.037Z,2.30
2017-12-14T04:21:11.110Z,1.27
2017-12-14T04:23:14.202Z,1.00
2017-12-14T04:25:17.275Z,1.43
2017-12-14T04:27:20.427Z,1.17
2017-12-14T04:29:23.433Z,1.57
2017-12-14T04:31:26.594Z,3.73
2017-12-14T04:33:29.612Z,1.10
2017-12-14T04:35:32.678Z,1.03
2017-12-14T04:37:35.853Z,1.10
2017-12-14T04:39:38.895Z,2.50
2017-12-14T04:41:41.999Z,1.13
2017-12-14T04:43:45.104Z,1.37
2017-12-14T04:45:48.268Z,1.10
2017-12-14T04:47:51.284Z,1.10
2017-12-14T04:49:54.421Z,1.00
2017-12-14T04:51:57.551Z,1.20
2017-12-14T04:54:00.628Z,1.00
2017-12-14T04:56:03.624Z,1.27
2017-12-14T04:58:06.695Z,2.60
2017-12-14T05:00:09.781Z,1.07
2017-12-14T05:02:12.776Z,1.03
2017-12-14T05:04:15.951Z,1.00
2017-12-14T05:06:18.969Z,1.03
2017-12-14T05:08:22.120Z,1.00
2017-12-14T05:10:25.182Z,3.40
2017-12-14T05:12:28.310Z,1.07
2017-12-14T05:14:31.292Z,1.37
2017-12-14T05:16:34.458Z,1.13
2017-12-14T05:18:37.492Z,0.97
2017-12-14T05:20:40.509Z,1.47
2017-12-14T05:22:43.618Z,2.80
2017-12-14T05:24:46.728Z,1.10
2017-12-14T05:26:49.778Z,1.20
2017-12-14T05:28:52.863Z,0.90
2017-12-14T05:30:55.950Z,1.10
2017-12-14T05:32:59.031Z,1.23
2017-12-14T05:35:02.073Z,1.10
2017-12-14T05:37:05.115Z,1.00
2017-12-14T05:39:08.179Z,2.93
2017-12-14T05:41:11.215Z,1.20
2017-12-14T05:43:14.289Z,1.00
2017-12-14T05:45:17.539Z,1.30
2017-12-14T05:47:20.662Z,1.00
2017-12-14T05:49:23.692Z,0.90
2017-12-14T05:51:26.723Z,1.40
2017-12-14T05:53:29.982Z,1.00
2017-12-14T05:55:32.997Z,0.93
2017-12-14T05:57:36.105Z,1.53
2017-12-14T05:59:39.335Z,1.50
2017-12-14T06:01:42.328Z,0.90
2017-12-14T06:03:45.359Z,1.37
2017-12-14T06:05:48.490Z,1.00
2017-12-14T06:07:51.572Z,1.43
2017-12-14T06:09:54.570Z,0.83
2017-12-14T06:11:57.685Z,1.27
2017-12-14T06:14:00.799Z,1.00
2017-12-14T06:16:04.756Z,1.40
2017-12-14T06:18:07.798Z,1.10
2017-12-14T06:20:10.833Z,1.87
2017-12-14T06:22:13.852Z,0.80
2017-12-14T06:24:16.943Z,1.00
2017-12-14T06:26:19.961Z,1.10
2017-12-14T06:28:22.995Z,1.03
2017-12-14T06:30:26.035Z,2.27
2017-12-14T06:32:29.136Z,1.10
2017-12-14T06:34:32.284Z,1.10
2017-12-14T06:36:35.473Z,1.87
2017-12-14T06:38:38.555Z,1.10
2017-12-14T06:40:41.672Z,1.43
2017-12-14T06:42:44.772Z,1.10
2017-12-14T06:44:47.888Z,1.20
2017-12-14T06:46:50.980Z,1.20
2017-12-14T06:48:54.141Z,0.90
2017-12-14T06:50:57.185Z,1.00
2017-12-14T06:53:00.248Z,1.20
2017-12-14T06:55:03.284Z,1.00
2017-12-14T06:57:06.317Z,1.27
2017-12-14T06:59:09.383Z,1.60
2017-12-14T07:01:12.487Z,1.03
2017-12-14T07:03:28.590Z,1.27
2017-12-14T07:05:31.667Z,1.53
2017-12-14T07:07:34.751Z,1.00
2017-12-14T07:09:37.764Z,1.10
2017-12-14T07:11:40.914Z,0.87
2017-12-14T07:13:44.130Z,2.17
2017-12-14T07:15:47.139Z,0.93
2017-12-14T07:17:50.161Z,1.10
2017-12-14T07:19:53.357Z,1.57
2017-12-14T07:21:56.426Z,1.83
2017-12-14T07:23:59.529Z,1.33
2017-12-14T07:26:02.548Z,1.53
2017-12-14T07:28:05.693Z,1.27
2017-12-14T07:30:08.803Z,1.30
2017-12-14T07:32:11.953Z,1.37
2017-12-14T07:34:14.987Z,2.50
2017-12-14T07:36:18.055Z,1.20
2017-12-14T07:38:21.101Z,1.37
2017-12-14T07:40:24.257Z,1.13
2017-12-14T07:42:39.267Z,1.60
2017-12-14T07:44:42.297Z,1.10
2017-12-14T07:46:57.249Z,3.90
2017-12-14T07:49:12.451Z,5.90
2017-12-14T07:51:15.514Z,1.00
2017-12-14T07:53:18.528Z,2.33
2017-12-14T07:55:21.549Z,1.77
2017-12-14T07:57:24.964Z,1.67
2017-12-14T07:59:27.996Z,2.10
2017-12-14T08:01:31.032Z,1.33
2017-12-14T08:03:34.076Z,2.53
2017-12-14T08:05:37.160Z,2.47
2017-12-14T08:07:40.188Z,3.23
2017-12-14T08:09:43.227Z,2.00
2017-12-14T08:11:46.432Z,3.47
2017-12-14T08:13:49.606Z,5.23
2017-12-14T08:15:52.785Z,1.10
2017-12-14T08:17:55.849Z,7.70
2017-12-14T08:19:58.859Z,1.20
2017-12-14T08:22:01.934Z,1.37
2017-12-14T08:24:05.064Z,7.77
2017-12-14T08:26:08.079Z,2.77
2017-12-14T08:28:11.123Z,1.73
2017-12-14T08:30:14.207Z,5.37
2017-12-14T08:32:17.297Z,2.53
2017-12-14T08:34:20.331Z,3.60
2017-12-14T08:36:23.351Z,3.90
2017-12-14T08:38:26.468Z,2.20
2017-12-14T08:40:29.740Z,4.03
2017-12-14T08:42:32.873Z,8.20
2017-12-14T08:44:36.027Z,5.67
2017-12-14T08:46:39.171Z,2.40
2017-12-14T08:48:42.309Z,3.30
2017-12-14T08:50:45.468Z,2.30
2017-12-14T08:52:48.698Z,2.90
2017-12-14T08:54:51.743Z,6.37
2017-12-14T08:56:54.819Z,5.80
2017-12-14T08:58:57.970Z,6.10
2017-12-14T09:01:01.055Z,6.13
2017-12-14T09:03:04.087Z,12.33
2017-12-14T09:05:07.181Z,4.27
2017-12-14T09:07:10.205Z,9.30
2017-12-14T09:09:13.228Z,5.50
2017-12-14T09:11:16.269Z,4.90
2017-12-14T09:13:19.297Z,5.63
2017-12-14T09:15:23.270Z,5.23
2017-12-14T09:17:26.363Z,5.60
2017-12-14T09:19:29.373Z,6.00
2017-12-14T09:21:32.400Z,6.67
2017-12-14T09:23:35.481Z,8.63
2017-12-14T09:25:38.603Z,6.10
2017-12-14T09:27:41.665Z,6.40
2017-12-14T09:29:44.697Z,6.30
2017-12-14T09:31:47.758Z,9.50
2017-12-14T09:33:50.849Z,8.30
2017-12-14T09:35:53.888Z,7.70
2017-12-14T09:37:56.985Z,8.40
2017-12-14T09:39:59.976Z,13.63
2017-12-14T09:42:03.094Z,6.03
2017-12-14T09:44:06.139Z,8.77
2017-12-14T09:46:09.131Z,6.43
2017-12-14T09:48:12.260Z,6.93
2017-12-14T09:50:15.388Z,6.83
2017-12-14T09:52:18.512Z,18.90
2017-12-14T09:54:21.700Z,9.30
2017-12-14T09:56:24.748Z,6.07
2017-12-14T09:58:27.835Z,7.90
2017-12-14T10:00:31.188Z,6.53
2017-12-14T10:02:34.298Z,13.13
2017-12-14T10:04:37.355Z,7.50
2017-12-14T10:06:40.406Z,11.03
2017-12-14T10:08:43.466Z,7.50
2017-12-14T10:10:46.544Z,6.77
2017-12-14T10:12:49.597Z,11.03
2017-12-14T10:14:52.709Z,9.47
2017-12-14T10:16:55.720Z,12.83
2017-12-14T10:18:58.827Z,13.30
2017-12-14T10:21:02.075Z,8.90
2017-12-14T10:23:05.232Z,7.60
2017-12-14T10:25:08.272Z,8.03
2017-12-14T10:27:11.340Z,8.77
2017-12-14T10:29:14.352Z,8.23
2017-12-14T10:31:17.468Z,8.90
2017-12-14T10:33:20.601Z,7.83
2017-12-14T10:35:23.807Z,22.53
2017-12-14T10:37:26.951Z,10.50
2017-12-14T10:39:29.980Z,6.80
2017-12-14T10:41:33.046Z,16.70
2017-12-14T10:43:36.096Z,7.47
2017-12-14T10:45:39.111Z,7.43
2017-12-14T10:47:42.192Z,10.30
2017-12-14T10:49:45.240Z,7.60
2017-12-14T10:51:48.384Z,10.57
2017-12-14T10:53:51.425Z,8.00
2017-12-14T10:55:54.563Z,8.93
2017-12-14T10:57:57.591Z,12.03
2017-12-14T11:00:00.600Z,9.10
2017-12-14T11:02:03.708Z,14.67
2017-12-14T11:04:06.846Z,12.13
2017-12-14T11:06:10.135Z,11.97
2017-12-14T11:08:13.164Z,11.13
2017-12-14T11:10:16.409Z,14.07
2017-12-14T11:12:19.610Z,12.73
2017-12-14T11:14:22.791Z,15.23
2017-12-14T11:16:25.924Z,14.43
2017-12-14T11:18:28.982Z,14.10
2017-12-14T11:20:32.142Z,14.37
2017-12-14T11:22:35.150Z,14.90
2017-12-14T11:24:38.256Z,13.97
2017-12-14T11:26:41.497Z,13.57
2017-12-14T11:28:44.568Z,13.33
2017-12-14T11:30:47.596Z,13.00
2017-12-14T11:32:50.803Z,12.90
2017-12-14T11:34:53.841Z,13.70
2017-12-14T11:36:56.897Z,13.17
2017-12-14T11:38:59.985Z,13.97
2017-12-14T11:41:03.148Z,16.67
2017-12-14T11:43:06.272Z,12.50
2017-12-14T11:45:09.511Z,13.40
2017-12-14T11:47:12.587Z,13.23
2017-12-14T11:49:15.776Z,13.10
2017-12-14T11:51:18.864Z,13.67
2017-12-14T11:53:22.105Z,13.63
2017-12-14T11:55:25.273Z,13.00
2017-12-14T11:57:28.411Z,13.80
2017-12-14T11:59:31.439Z,13.33
2017-12-14T12:01:34.546Z,12.80
2017-12-14T12:03:37.630Z,13.90
2017-12-14T12:05:40.648Z,13.30
2017-12-14T12:07:43.736Z,12.83
2017-12-14T12:09:46.791Z,12.37
2017-12-14T12:11:55.599Z,13.60
2017-12-14T12:13:58.639Z,12.60
2017-12-14T12:16:01.692Z,12.77
2017-12-14T12:18:04.792Z,12.40
2017-12-14T12:20:08.041Z,13.87
2017-12-14T12:22:11.227Z,15.37
2017-12-14T12:24:14.286Z,13.87
2017-12-14T12:26:17.283Z,13.50
2017-12-14T12:28:20.346Z,13.43
2017-12-14T12:30:23.374Z,13.33
2017-12-14T12:32:26.405Z,12.63
2017-12-14T12:34:29.470Z,13.00
2017-12-14T12:36:32.605Z,14.23
2017-12-14T12:38:35.739Z,13.97
2017-12-14T12:40:38.853Z,14.47
2017-12-14T12:42:42.018Z,13.20
2017-12-14T12:44:45.160Z,14.03
2017-12-14T12:46:48.243Z,16.33
2017-12-14T12:48:51.257Z,14.27
2017-12-14T12:50:54.343Z,14.40
2017-12-14T12:52:57.702Z,12.23
2017-12-14T12:55:00.708Z,15.00
2017-12-14T12:57:03.880Z,16.87
2017-12-14T12:59:06.998Z,13.53
2017-12-14T13:01:10.032Z,17.23
2017-12-14T13:03:13.226Z,14.27
2017-12-14T13:05:16.515Z,14.37
2017-12-14T13:07:19.529Z,14.17
2017-12-14T13:09:22.582Z,13.67
2017-12-14T13:11:25.655Z,13.90
2017-12-14T13:13:28.856Z,13.97
2017-12-14T13:15:31.880Z,13.47
2017-12-14T13:17:35.025Z,13.73
2017-12-14T13:19:38.115Z,13.70
2017-12-14T13:21:41.128Z,13.93
2017-12-14T13:23:44.228Z,13.13
2017-12-14T13:25:47.266Z,13.70
2017-12-14T13:27:50.356Z,15.23
2017-12-14T13:29:53.531Z,14.07
2017-12-14T13:31:56.564Z,13.00
2017-12-14T13:33:59.596Z,14.00
2017-12-14T13:36:02.896Z,14.43
2017-12-14T13:38:05.937Z,13.87
2017-12-14T13:40:08.988Z,15.20
2017-12-14T13:42:12.162Z,15.87
2017-12-14T13:44:15.177Z,15.80
2017-12-14T13:46:18.227Z,18.07
2017-12-14T13:48:21.436Z,21.83
2017-12-14T13:50:24.536Z,17.13
2017-12-14T13:52:27.574Z,22.03
2017-12-14T13:54:31.105Z,22.67
2017-12-14T13:56:34.350Z,18.73
2017-12-14T13:58:37.616Z,21.00
2017-12-14T14:00:40.678Z,20.83
2017-12-14T14:02:43.708Z,23.07
2017-12-14T14:04:46.736Z,35.13
2017-12-14T14:06:49.800Z,29.27
2017-12-14T14:08:52.864Z,23.57
2017-12-14T14:10:55.929Z,18.00
2017-12-14T14:12:58.992Z,25.17
2017-12-14T14:15:02.110Z,16.37
2017-12-14T14:17:05.140Z,34.53
2017-12-14T14:19:08.381Z,22.37
2017-12-14T14:21:11.467Z,20.40
2017-12-14T14:23:14.552Z,33.77
2017-12-14T14:25:17.667Z,17.17
2017-12-14T14:27:20.822Z,24.57
2017-12-14T14:29:23.829Z,20.57
2017-12-14T14:31:26.895Z,16.10
2017-12-14T14:33:30.017Z,20.13
2017-12-14T14:35:33.084Z,23.10
2017-12-14T14:37:36.161Z,16.80
2017-12-14T14:39:39.269Z,20.70
2017-12-14T14:41:42.326Z,16.20
2017-12-14T14:43:45.384Z,17.97
2017-12-14T14:45:48.408Z,29.63
2017-12-14T14:47:51.501Z,22.93
2017-12-14T14:49:54.579Z,55.57
2017-12-14T14:51:57.742Z,84.13
2017-12-14T14:54:01.221Z,80.40
2017-12-14T14:56:04.274Z,73.13
2017-12-14T14:58:07.322Z,47.20
2017-12-14T15:00:10.524Z,60.17
2017-12-14T15:02:13.625Z,42.50
2017-12-14T15:04:16.658Z,40.43
2017-12-14T15:06:19.844Z,38.10
2017-12-14T15:08:22.986Z,33.63
2017-12-14T15:10:26.110Z,35.50
2017-12-14T15:12:29.195Z,66.13
2017-12-14T15:14:32.280Z,46.57
2017-12-14T15:16:35.287Z,46.78
2017-12-14T15:18:38.345Z,70.60
2017-12-14T15:20:41.520Z,51.47
2017-12-14T15:22:44.552Z,51.83
2017-12-14T15:24:47.593Z,44.87
2017-12-14T15:26:50.684Z,39.50
2017-12-14T15:28:53.692Z,56.63
2017-12-14T15:30:56.806Z,36.23
2017-12-14T15:32:59.913Z,43.50
2017-12-14T15:35:02.966Z,53.13
2017-12-14T15:37:06.087Z,46.97
2017-12-14T15:39:09.190Z,39.03
2017-12-14T15:41:12.265Z,42.43
2017-12-14T15:43:15.325Z,45.87
2017-12-14T15:45:18.414Z,33.07
2017-12-14T15:49:25.788Z,27.87
2017-12-14T15:51:28.832Z,32.53
2017-12-14T15:53:32.076Z,31.23
2017-12-14T15:55:35.138Z,30.43
2017-12-14T15:57:38.202Z,34.87
2017-12-14T15:59:41.546Z,32.87
2017-12-14T16:01:44.822Z,32.17
2017-12-14T16:03:47.896Z,39.83
2017-12-14T16:05:50.943Z,34.13
2017-12-14T16:07:53.981Z,32.00
2017-12-14T16:09:57.035Z,36.47
2017-12-14T16:12:00.084Z,33.00
2017-12-14T16:14:03.180Z,32.80
2017-12-14T16:16:06.236Z,30.60
2017-12-14T16:18:09.295Z,28.57
2017-12-14T16:20:12.316Z,32.27
2017-12-14T16:22:15.460Z,29.43
2017-12-14T16:24:18.522Z,40.47
2017-12-14T16:26:21.633Z,32.97
2017-12-14T16:28:24.700Z,22.50
2017-12-14T16:30:27.802Z,29.33
2017-12-14T16:32:30.926Z,27.17
2017-12-14T16:34:34.015Z,25.00
2017-12-14T16:36:37.172Z,26.30
2017-12-14T16:38:40.251Z,35.13
2017-12-14T16:40:43.298Z,30.57
2017-12-14T16:42:46.439Z,26.87
2017-12-14T16:44:49.636Z,21.67
2017-12-14T16:46:52.676Z,17.23
2017-12-14T16:48:56.951Z,22.17
2017-12-14T16:51:00.055Z,25.30
2017-12-14T16:53:03.100Z,22.50
2017-12-14T16:55:06.295Z,18.20
2017-12-14T16:57:09.475Z,22.73
2017-12-14T16:59:12.597Z,18.20
2017-12-14T17:01:15.720Z,18.80
2017-12-14T17:03:18.931Z,17.30
2017-12-14T17:05:21.998Z,24.70
2017-12-14T17:07:25.047Z,17.53
2017-12-14T17:09:28.133Z,19.57
2017-12-14T17:11:31.180Z,22.37
2017-12-14T17:13:34.232Z,18.53
2017-12-14T17:15:37.264Z,22.63
2017-12-14T17:17:40.356Z,21.27
2017-12-14T17:19:43.401Z,27.87
2017-12-14T17:21:46.413Z,17.67
2017-12-14T17:23:49.579Z,20.73
2017-12-14T17:25:52.664Z,23.07
2017-12-14T17:27:55.785Z,23.23
2017-12-14T17:29:58.830Z,23.63
2017-12-14T17:32:01.877Z,20.40
2017-12-14T17:34:04.953Z,21.97
2017-12-14T17:36:08.082Z,16.47
2017-12-14T17:38:11.168Z,17.67
2017-12-14T17:40:14.175Z,19.47
2017-12-14T17:42:17.260Z,19.53
2017-12-14T17:44:20.321Z,17.20
2017-12-14T17:46:23.446Z,20.60
2017-12-14T17:48:26.777Z,16.23
2017-12-14T17:50:29.830Z,17.70
2017-12-14T17:52:32.868Z,30.93
2017-12-14T17:54:35.892Z,24.40
2017-12-14T17:56:38.974Z,22.57
2017-12-14T17:58:42.017Z,19.07
2017-12-14T18:00:45.084Z,21.40
2017-12-14T18:02:48.148Z,26.30
2017-12-14T18:04:51.348Z,22.77
2017-12-14T18:06:54.911Z,21.20
2017-12-14T18:08:57.972Z,18.97
2017-12-14T18:11:01.009Z,12.57
2017-12-14T18:13:04.119Z,16.20
2017-12-14T18:15:07.145Z,18.70
2017-12-14T18:17:10.287Z,18.47
2017-12-14T18:19:13.475Z,14.97
2017-12-14T18:21:16.559Z,18.00
2017-12-14T18:23:19.612Z,16.27
2017-12-14T18:25:22.667Z,16.37
2017-12-14T18:27:25.693Z,18.63
2017-12-14T18:29:28.770Z,16.77
2017-12-14T18:31:31.931Z,19.20
2017-12-14T18:33:34.984Z,15.63
2017-12-14T18:35:38.047Z,28.77
2017-12-14T18:37:41.087Z,15.63
2017-12-14T18:39:44.217Z,17.50
2017-12-14T18:41:47.228Z,14.37
2017-12-14T18:43:50.329Z,18.57
2017-12-14T18:45:53.472Z,16.77
2017-12-14T18:47:56.489Z,21.30
2017-12-14T18:49:59.536Z,13.70
2017-12-14T18:52:02.571Z,14.47
2017-12-14T18:54:05.639Z,15.57
2017-12-14T18:56:08.717Z,15.10
2017-12-14T18:58:11.772Z,14.90
2017-12-14T19:00:14.858Z,16.87
2017-12-14T19:02:17.881Z,14.30
2017-12-14T19:04:20.922Z,13.20
2017-12-14T19:06:24.124Z,12.33
2017-12-14T19:08:27.298Z,18.80
2017-12-14T19:10:30.429Z,14.53
2017-12-14T19:12:33.458Z,16.70
2017-12-14T19:14:36.596Z,16.60
2017-12-14T19:16:39.640Z,16.77
2017-12-14T19:18:42.666Z,13.47
2017-12-14T19:20:45.764Z,12.03
2017-12-14T19:22:48.792Z,12.77
2017-12-14T19:24:51.827Z,20.67
2017-12-14T19:26:54.872Z,14.47
2017-12-14T19:28:57.905Z,22.47
2017-12-14T19:31:00.926Z,23.53
2017-12-14T19:33:03.979Z,14.20
2017-12-14T19:35:07.018Z,17.97
2017-12-14T19:37:10.043Z,16.63
2017-12-14T19:39:13.194Z,17.90
2017-12-14T19:41:16.241Z,12.90
2017-12-14T19:43:19.328Z,14.13
2017-12-14T19:45:22.607Z,12.90
2017-12-14T19:47:26.670Z,15.10
2017-12-14T19:49:30.116Z,11.20
2017-12-14T19:51:33.398Z,16.00
2017-12-14T19:53:36.447Z,15.67
2017-12-14T19:55:39.467Z,13.97
2017-12-14T19:57:42.510Z,12.60
2017-12-14T19:59:45.643Z,11.83
2017-12-14T20:01:48.736Z,12.77
2017-12-14T20:03:51.785Z,14.10
2017-12-14T20:05:56.198Z,14.83
2017-12-14T20:07:59.423Z,17.13
2017-12-14T20:10:02.525Z,17.27
2017-12-14T20:12:05.560Z,14.60
2017-12-14T20:14:08.701Z,16.27
2017-12-14T20:16:11.775Z,16.13
2017-12-14T20:18:14.835Z,13.93
2017-12-14T20:20:17.838Z,12.60
2017-12-14T20:22:20.937Z,13.50
2017-12-14T20:24:24.024Z,10.27
2017-12-14T20:26:27.175Z,13.83
2017-12-14T20:28:30.204Z,14.20
2017-12-14T20:30:33.319Z,11.90
2017-12-14T20:32:36.347Z,12.00
2017-12-14T20:34:39.630Z,13.37
2017-12-14T20:36:42.668Z,15.27
2017-12-14T20:38:45.687Z,15.83
2017-12-14T20:40:48.740Z,15.00
2017-12-14T20:42:51.764Z,13.10
2017-12-14T20:44:54.792Z,10.87
2017-12-14T20:46:57.866Z,14.90
2017-12-14T20:49:00.989Z,17.30
2017-12-14T20:51:04.088Z,12.03
2017-12-14T20:53:07.111Z,10.90
2017-12-14T20:55:10.266Z,13.87
2017-12-14T20:57:13.282Z,9.20
2017-12-14T20:59:16.349Z,13.47
2017-12-14T21:01:19.375Z,12.87
2017-12-14T21:03:22.400Z,11.77
2017-12-14T21:05:25.455Z,12.27
2017-12-14T21:07:28.502Z,10.40
2017-12-14T21:09:31.584Z,11.97
2017-12-14T21:11:34.637Z,13.83
2017-12-14T21:13:37.668Z,10.60
2017-12-14T21:15:40.697Z,13.83
2017-12-14T21:17:43.778Z,11.33
2017-12-14T21:19:46.863Z,14.47
2017-12-14T21:21:49.880Z,11.10
2017-12-14T21:23:52.940Z,9.57
2017-12-14T21:25:55.960Z,10.90
2017-12-14T21:27:58.984Z,11.17
2017-12-14T21:30:02.030Z,11.20
2017-12-14T21:32:05.164Z,19.17
2017-12-14T21:34:08.185Z,15.80
2017-12-14T21:36:11.231Z,13.77
2017-12-14T21:38:14.248Z,8.80
2017-12-14T21:40:17.379Z,10.73
2017-12-14T21:42:20.412Z,9.53
2017-12-14T21:44:23.443Z,12.43
2017-12-14T21:46:26.474Z,14.17
2017-12-14T21:48:29.533Z,11.93
2017-12-14T21:50:32.541Z,8.80
2017-12-14T21:52:35.575Z,11.77
2017-12-14T21:54:38.723Z,11.53
2017-12-14T21:56:41.749Z,9.80
2017-12-14T21:58:44.792Z,11.60
2017-12-14T22:00:47.837Z,13.70
2017-12-14T22:02:50.856Z,8.60
2017-12-14T22:04:53.880Z,8.63
2017-12-14T22:06:56.987Z,11.07
2017-12-14T22:09:00.032Z,13.40
2017-12-14T22:11:03.161Z,9.13
2017-12-14T22:13:06.193Z,9.23
2017-12-14T22:15:09.222Z,10.40
2017-12-14T22:17:12.280Z,8.20
2017-12-14T22:19:15.330Z,12.20
2017-12-14T22:21:18.379Z,9.87
2017-12-14T22:23:21.386Z,11.20
2017-12-14T22:25:24.478Z,9.83
2017-12-14T22:27:27.535Z,11.07
2017-12-14T22:29:30.610Z,8.27
2017-12-14T22:31:33.715Z,11.03
2017-12-14T22:33:36.723Z,8.97
2017-12-14T22:35:39.789Z,11.37
2017-12-14T22:37:42.835Z,11.53
2017-12-14T22:39:45.884Z,10.30
2017-12-14T22:41:49.016Z,12.63
2017-12-14T22:43:52.045Z,9.93
2017-12-14T22:45:55.139Z,9.37
2017-12-14T22:47:58.162Z,11.87
2017-12-14T22:50:01.354Z,8.60
2017-12-14T22:52:04.468Z,9.60
2017-12-14T22:54:07.522Z,9.50
2017-12-14T22:56:10.566Z,8.97
2017-12-14T22:58:13.585Z,10.23
2017-12-14T23:00:16.718Z,9.40
2017-12-14T23:02:19.780Z,9.70
2017-12-14T23:04:22.809Z,12.73
2017-12-14T23:06:25.855Z,10.27
2017-12-14T23:08:28.907Z,15.57
2017-12-14T23:10:31.963Z,10.63
2017-12-14T23:12:35.086Z,11.03
2017-12-14T23:14:38.177Z,9.70
2017-12-14T23:16:41.189Z,8.90
2017-12-14T23:18:44.217Z,11.03
2017-12-14T23:20:47.266Z,9.87
2017-12-14T23:22:50.292Z,8.90
2017-12-14T23:24:53.312Z,9.67
2017-12-14T23:26:56.359Z,9.87
2017-12-14T23:28:59.484Z,8.77
2017-12-14T23:31:02.507Z,9.53
2017-12-14T23:33:05.586Z,8.03
2017-12-14T23:35:08.689Z,10.83
2017-12-14T23:37:11.789Z,7.83
2017-12-14T23:39:15.245Z,9.53
2017-12-14T23:41:18.271Z,10.80
2017-12-14T23:43:21.351Z,8.27
2017-12-14T23:45:24.433Z,10.20
2017-12-14T23:47:27.443Z,7.43
2017-12-14T23:49:30.465Z,9.67
2017-12-14T23:51:33.552Z,9.17
2017-12-14T23:53:36.600Z,8.87
2017-12-14T23:55:39.613Z,8.90
2017-12-14T23:57:42.791Z,9.70
2017-12-14T23:59:45.833Z,8.33
